createdAt,value
2018-09-22T00:02:31.549Z,22.00
2018-09-22T00:07:36.449Z,21.90
2018-09-22T00:12:42.017Z,21.90
2018-09-22T00:17:46.943Z,22.10
2018-09-22T00:22:52.581Z,22.20
2018-09-22T00:27:57.674Z,22.40
2018-09-22T00:33:02.702Z,22.30
2018-09-22T00:38:07.547Z,22.20
2018-09-22T00:43:12.456Z,22.10
2018-09-22T00:48:17.901Z,22.20
2018-09-22T00:53:22.824Z,22.20
2018-09-22T00:58:27.714Z,22.40
2018-09-22T01:03:32.660Z,22.40
2018-09-22T01:08:37.720Z,22.50
2018-09-22T01:13:42.709Z,22.50
2018-09-22T01:18:47.553Z,22.40
2018-09-22T01:23:52.533Z,22.50
2018-09-22T01:28:57.585Z,22.30
2018-09-22T01:34:02.516Z,22.20
2018-09-22T01:39:08.924Z,22.10
2018-09-22T01:44:13.765Z,22.10
2018-09-22T01:49:18.652Z,22.10
2018-09-22T01:54:23.701Z,22.10
2018-09-22T01:59:28.786Z,22.10
2018-09-22T02:04:33.783Z,22.10
2018-09-22T02:09:38.743Z,22.10
2018-09-22T02:14:43.608Z,22.00
2018-09-22T02:19:48.645Z,22.00
2018-09-22T02:24:54.030Z,22.00
2018-09-22T02:29:58.859Z,22.00
2018-09-22T02:35:03.770Z,22.00
2018-09-22T02:40:08.741Z,21.80
2018-09-22T02:45:13.613Z,21.80
2018-09-22T02:50:18.991Z,21.70
2018-09-22T02:55:24.024Z,21.70
2018-09-22T03:00:29.001Z,21.70
2018-09-22T03:05:33.898Z,21.60
2018-09-22T03:10:38.766Z,21.70
2018-09-22T03:15:43.750Z,21.80
2018-09-22T03:20:48.707Z,21.80
2018-09-22T03:25:53.663Z,21.80
2018-09-22T03:30:58.582Z,21.80
2018-09-22T03:36:03.446Z,21.80
2018-09-22T03:41:08.412Z,21.70
2018-09-22T03:46:13.323Z,21.60
2018-09-22T03:51:18.461Z,21.70
2018-09-22T03:56:23.799Z,21.70
2018-09-22T04:01:29.914Z,21.70
2018-09-22T04:06:34.857Z,21.60
2018-09-22T04:11:39.772Z,21.80
2018-09-22T04:16:44.633Z,21.80
2018-09-22T04:21:49.603Z,21.80
2018-09-22T04:26:54.586Z,21.70
2018-09-22T04:31:59.584Z,21.70
2018-09-22T04:37:04.576Z,21.70
2018-09-22T04:42:09.584Z,21.80
2018-09-22T04:47:14.547Z,21.90
2018-09-22T04:52:19.557Z,21.80
2018-09-22T04:57:24.405Z,21.70
2018-09-22T05:02:29.405Z,21.80
2018-09-22T05:07:34.288Z,21.80
2018-09-22T05:12:39.189Z,21.80
2018-09-22T05:17:44.078Z,21.90
2018-09-22T05:22:48.973Z,22.10
2018-09-22T05:27:53.989Z,22.00
2018-09-22T05:32:58.945Z,22.00
2018-09-22T05:38:03.976Z,22.20
2018-09-22T05:43:08.920Z,22.40
2018-09-22T05:48:13.964Z,22.60
2018-09-22T05:53:18.891Z,22.70
2018-09-22T05:58:24.579Z,22.70
2018-09-22T06:03:29.716Z,22.90
2018-09-22T06:08:34.725Z,23.00
2018-09-22T06:13:39.623Z,23.10
2018-09-22T06:18:44.657Z,23.10
2018-09-22T06:23:49.653Z,23.20
2018-09-22T06:28:54.586Z,23.30
2018-09-22T06:33:59.521Z,23.50
2018-09-22T06:39:06.004Z,23.60
2018-09-22T06:44:11.126Z,23.60
2018-09-22T06:49:16.084Z,23.70
2018-09-22T06:54:21.247Z,23.90
2018-09-22T06:59:26.262Z,23.90
2018-09-22T07:04:31.213Z,24.20
2018-09-22T07:09:36.211Z,24.50
2018-09-22T07:14:41.048Z,25.10
2018-09-22T07:19:46.065Z,25.30
2018-09-22T07:24:50.898Z,25.30
2018-09-22T07:29:55.920Z,25.40
2018-09-22T07:35:00.907Z,25.50
2018-09-22T07:40:06.224Z,25.70
2018-09-22T07:45:11.230Z,25.60
2018-09-22T07:50:17.271Z,25.50
2018-09-22T07:55:46.262Z,25.70
2018-09-22T08:00:52.785Z,25.80
2018-09-22T08:05:57.684Z,25.70
2018-09-22T08:11:02.728Z,25.80
2018-09-22T08:16:08.445Z,25.80
2018-09-22T08:21:15.176Z,25.50
2018-09-22T08:26:20.273Z,25.40
2018-09-22T08:31:25.228Z,25.30
2018-09-22T08:36:30.473Z,25.70
2018-09-22T08:41:35.368Z,26.20
2018-09-22T08:46:40.288Z,26.60
2018-09-22T08:51:45.189Z,26.90
2018-09-22T08:56:50.228Z,26.90
2018-09-22T09:01:56.291Z,26.90
2018-09-22T09:07:01.976Z,26.90
2018-09-22T09:12:09.318Z,27.00
2018-09-22T09:17:14.303Z,27.00
2018-09-22T09:22:19.291Z,27.10
2018-09-22T09:27:24.443Z,27.30
2018-09-22T09:32:29.434Z,27.50
2018-09-22T09:37:34.340Z,27.50
2018-09-22T09:42:40.810Z,27.50
2018-09-22T09:47:47.168Z,27.40
2018-09-22T09:52:52.401Z,27.60
2018-09-22T09:57:57.270Z,27.90
2018-09-22T10:03:02.203Z,28.10
2018-09-22T10:08:07.505Z,28.10
2018-09-22T10:13:12.461Z,28.20
2018-09-22T10:18:17.391Z,28.40
2018-09-22T10:23:22.304Z,28.80
2018-09-22T10:28:27.435Z,28.50
2018-09-22T10:33:33.037Z,28.50
2018-09-22T10:38:37.983Z,28.90
2018-09-22T10:43:43.045Z,29.10
2018-09-22T10:48:48.836Z,29.40
2018-09-22T10:53:54.279Z,29.20
2018-09-22T10:58:59.561Z,29.20
2018-09-22T11:04:04.493Z,29.60
2018-09-22T11:09:09.508Z,30.00
2018-09-22T11:14:15.173Z,30.50
2018-09-22T11:19:20.236Z,30.80
2018-09-22T11:24:26.584Z,30.90
2018-09-22T11:29:31.868Z,30.90
2018-09-22T11:34:36.989Z,31.10
2018-09-22T11:39:41.939Z,31.00
2018-09-22T11:44:46.914Z,31.70
2018-09-22T11:49:52.001Z,31.20
2018-09-22T11:54:57.072Z,30.60
2018-09-22T12:00:02.549Z,31.20
2018-09-22T12:05:07.653Z,32.00
2018-09-22T12:10:15.068Z,30.90
2018-09-22T12:15:20.368Z,30.50
2018-09-22T12:20:25.304Z,30.10
2018-09-22T12:25:30.283Z,30.50
2018-09-22T12:30:35.380Z,30.80
2018-09-22T12:35:40.525Z,30.90
2018-09-22T12:40:45.661Z,30.60
2018-09-22T12:45:50.597Z,31.00
2018-09-22T12:50:55.993Z,31.30
2018-09-22T12:56:01.978Z,31.30
2018-09-22T13:01:08.642Z,31.50
2018-09-22T13:06:16.696Z,31.50
2018-09-22T13:11:21.920Z,31.30
2018-09-22T13:16:26.838Z,32.00
2018-09-22T13:21:31.673Z,32.20
2018-09-22T13:26:36.788Z,32.70
2018-09-22T13:31:41.712Z,33.70
2018-09-22T13:36:46.683Z,33.30
2018-09-22T13:41:52.185Z,33.00
2018-09-22T13:47:01.442Z,32.10
2018-09-22T13:52:07.054Z,32.80
2018-09-22T13:57:12.005Z,33.00
2018-09-22T14:02:17.275Z,33.40
2018-09-22T14:07:22.175Z,33.70
2018-09-22T14:12:27.204Z,34.20
2018-09-22T14:17:32.282Z,34.20
2018-09-22T14:22:37.213Z,33.20
2018-09-22T14:27:42.185Z,32.60
2018-09-22T14:32:49.938Z,33.00
2018-09-22T14:37:55.148Z,33.00
2018-09-22T14:42:59.997Z,33.00
2018-09-22T14:48:05.145Z,34.10
2018-09-22T14:53:10.147Z,34.30
2018-09-22T14:58:15.251Z,33.50
2018-09-22T15:03:20.236Z,33.40
2018-09-22T15:08:25.457Z,33.10
2018-09-22T15:13:30.528Z,33.40
2018-09-22T15:18:35.415Z,32.70
2018-09-22T15:23:40.392Z,32.40
2018-09-22T15:28:45.560Z,32.60
2018-09-22T15:33:50.538Z,32.30
2018-09-22T15:38:57.844Z,31.10
2018-09-22T15:44:02.888Z,30.60
2018-09-22T15:49:08.296Z,30.70
2018-09-22T15:54:13.192Z,30.80
2018-09-22T15:59:18.151Z,29.90
2018-09-22T16:04:23.252Z,29.60
2018-09-22T16:09:28.148Z,29.40
2018-09-22T16:14:33.174Z,29.10
2018-09-22T16:19:38.556Z,28.60
2018-09-22T16:24:43.560Z,28.40
2018-09-22T16:29:48.460Z,28.10
2018-09-22T16:34:53.480Z,27.80
2018-09-22T16:40:01.475Z,27.60
2018-09-22T16:45:06.473Z,27.90
2018-09-22T16:50:12.351Z,27.90
2018-09-22T16:55:17.493Z,27.50
2018-09-22T17:00:22.477Z,27.40
2018-09-22T17:05:27.526Z,27.20
2018-09-22T17:10:32.487Z,27.10
2018-09-22T17:15:37.424Z,26.90
2018-09-22T17:20:42.441Z,26.80
2018-09-22T17:25:47.293Z,26.80
2018-09-22T17:30:53.241Z,26.70
2018-09-22T18:18:49.682Z,26.10
2018-09-22T18:23:54.918Z,26.40
2018-09-22T18:29:18.546Z,26.10
2018-09-22T18:34:25.746Z,26.00
2018-09-22T18:39:30.634Z,26.10
2018-09-22T18:44:35.655Z,25.90
2018-09-22T18:49:40.864Z,25.90
2018-09-22T18:54:45.812Z,25.80
2018-09-22T18:59:51.379Z,25.70
2018-09-22T19:04:57.056Z,25.60
2018-09-22T19:10:02.004Z,25.60
2018-09-22T19:15:11.723Z,25.50
2018-09-22T19:21:20.113Z,25.50
2018-09-22T19:26:28.668Z,25.40
2018-09-22T19:31:38.499Z,25.20
2018-09-22T19:36:53.135Z,25.20
2018-09-22T19:42:01.830Z,25.20
2018-09-22T19:47:15.189Z,25.10
2018-09-22T19:52:24.977Z,24.90
2018-09-22T19:57:30.256Z,25.00
2018-09-22T20:02:35.343Z,25.10
2018-09-22T20:07:40.565Z,25.00
2018-09-22T20:12:45.763Z,24.80
2018-09-22T20:17:51.123Z,24.80
2018-09-22T20:22:57.638Z,24.60
2018-09-22T20:28:02.898Z,24.50
2018-09-22T20:33:07.858Z,24.40
2018-09-22T20:38:13.273Z,24.30
2018-09-22T20:43:20.439Z,24.30
2018-09-22T20:48:25.468Z,24.30
2018-09-22T20:53:30.896Z,24.20
2018-09-22T20:58:35.934Z,24.20
2018-09-22T21:03:41.161Z,24.10
2018-09-22T21:08:46.122Z,24.20
2018-09-22T21:13:52.002Z,24.40
2018-09-22T21:18:57.011Z,24.20
2018-09-22T21:24:02.643Z,24.20
2018-09-22T21:29:07.656Z,24.10
2018-09-22T21:34:12.568Z,23.90
2018-09-22T21:39:18.228Z,24.00
2018-09-22T21:44:23.148Z,23.90
2018-09-22T21:49:28.137Z,23.80
2018-09-22T21:54:33.991Z,23.90
2018-09-22T21:59:39.033Z,23.80
2018-09-22T22:04:43.992Z,23.90
2018-09-22T22:09:49.248Z,24.00
2018-09-22T22:14:55.125Z,24.00
2018-09-22T22:20:00.501Z,24.00
2018-09-22T22:25:05.643Z,23.90
2018-09-22T22:30:11.740Z,23.80
2018-09-22T22:35:16.681Z,23.90
2018-09-22T22:40:22.209Z,24.00
2018-09-22T22:45:27.513Z,24.00
2018-09-22T22:50:32.436Z,24.00
2018-09-22T22:55:38.120Z,24.10
2018-09-22T23:00:43.605Z,24.10
2018-09-22T23:05:49.311Z,24.10
2018-09-22T23:10:54.405Z,24.20
2018-09-22T23:15:59.340Z,24.20
2018-09-22T23:21:04.721Z,24.20
2018-09-22T23:26:11.654Z,24.30
2018-09-22T23:31:16.693Z,24.30
2018-09-22T23:36:23.214Z,24.10
2018-09-22T23:41:31.816Z,24.10
2018-09-22T23:46:40.100Z,24.10
2018-09-22T23:51:45.074Z,24.20
2018-09-22T23:56:49.995Z,24.30
